createdAt,value
2018-09-02T00:02:19.751Z,13.21
2018-09-02T00:04:47.547Z,13.06
2018-09-02T00:07:15.369Z,13.04
2018-09-02T00:09:43.113Z,12.93
2018-09-02T00:12:11.160Z,12.94
2018-09-02T00:14:39.012Z,12.95
2018-09-02T00:17:06.779Z,12.89
2018-09-02T00:19:34.571Z,12.89
2018-09-02T00:22:02.369Z,12.84
2018-09-02T00:24:30.179Z,12.84
2018-09-02T00:26:57.955Z,12.77
2018-09-02T00:29:25.827Z,12.79
2018-09-02T00:31:53.619Z,12.80
2018-09-02T00:34:21.962Z,12.71
2018-09-02T00:36:49.705Z,12.73
2018-09-02T00:39:17.526Z,12.70
2018-09-02T00:41:45.343Z,12.66
2018-09-02T00:44:13.122Z,12.56
2018-09-02T00:46:40.970Z,12.61
2018-09-02T00:49:08.828Z,12.63
2018-09-02T00:51:36.659Z,12.60
2018-09-02T00:54:04.483Z,12.53
2018-09-02T00:56:32.339Z,12.52
2018-09-02T00:59:00.117Z,12.41
2018-09-02T01:01:27.924Z,12.48
2018-09-02T01:03:55.805Z,12.45
2018-09-02T01:06:24.101Z,12.51
2018-09-02T01:08:51.976Z,12.33
2018-09-02T01:11:19.815Z,12.39
2018-09-02T01:13:47.683Z,12.30
2018-09-02T01:16:15.552Z,12.27
2018-09-02T01:18:43.507Z,12.22
2018-09-02T01:21:11.435Z,12.30
2018-09-02T01:23:39.243Z,12.30
2018-09-02T01:26:07.056Z,12.25
2018-09-02T01:28:34.903Z,12.30
2018-09-02T01:31:02.714Z,12.32
2018-09-02T01:33:30.451Z,12.36
2018-09-02T01:35:58.307Z,12.28
2018-09-02T01:38:26.145Z,12.37
2018-09-02T01:40:54.003Z,12.33
2018-09-02T01:43:21.851Z,12.38
2018-09-02T01:45:49.664Z,12.39
2018-09-02T01:48:17.516Z,12.41
2018-09-02T01:50:45.393Z,12.32
2018-09-02T01:53:13.160Z,12.42
2018-09-02T01:55:40.985Z,12.48
2018-09-02T01:58:08.864Z,12.53
2018-09-02T02:00:36.688Z,12.55
2018-09-02T02:03:04.509Z,12.65
2018-09-02T02:05:32.315Z,12.66
2018-09-02T02:08:00.141Z,12.79
2018-09-02T02:10:27.932Z,12.82
2018-09-02T02:12:55.764Z,12.84
2018-09-02T02:15:23.598Z,12.88
2018-09-02T02:17:51.339Z,12.92
2018-09-02T02:20:19.143Z,13.05
2018-09-02T02:22:46.955Z,13.14
2018-09-02T02:25:14.703Z,13.20
2018-09-02T02:27:42.508Z,13.23
2018-09-02T02:30:10.307Z,13.30
2018-09-02T02:32:38.187Z,13.39
2018-09-02T02:35:05.994Z,13.48
2018-09-02T02:37:33.751Z,13.46
2018-09-02T02:40:01.576Z,13.49
2018-09-02T02:42:29.441Z,13.51
2018-09-02T02:44:57.306Z,13.56
2018-09-02T02:47:25.096Z,13.55
2018-09-02T02:49:52.940Z,13.56
2018-09-02T02:52:20.923Z,13.62
2018-09-02T02:54:48.715Z,13.63
2018-09-02T02:57:16.511Z,13.68
2018-09-02T02:59:44.405Z,13.72
2018-09-02T03:02:12.221Z,13.75
2018-09-02T03:04:40.962Z,13.81
2018-09-02T03:07:09.772Z,13.82
2018-09-02T03:09:37.515Z,13.83
2018-09-02T03:12:05.527Z,13.86
2018-09-02T03:14:33.322Z,13.88
2018-09-02T03:17:01.139Z,13.91
2018-09-02T03:19:28.933Z,13.93
2018-09-02T03:21:56.755Z,13.97
2018-09-02T03:24:24.513Z,13.98
2018-09-02T03:26:52.340Z,14.01
2018-09-02T03:29:20.105Z,14.02
2018-09-02T03:31:47.930Z,14.04
2018-09-02T03:34:15.778Z,14.07
2018-09-02T03:36:43.707Z,14.09
2018-09-02T03:39:11.610Z,14.11
2018-09-02T03:41:39.459Z,14.13
2018-09-02T03:44:07.298Z,14.16
2018-09-02T03:46:35.129Z,14.18
2018-09-02T03:49:02.984Z,14.13
2018-09-02T03:51:30.715Z,14.17
2018-09-02T03:53:58.596Z,14.17
2018-09-02T03:56:26.371Z,14.18
2018-09-02T03:58:54.403Z,14.19
2018-09-02T04:01:22.272Z,14.18
2018-09-02T04:03:50.048Z,14.19
2018-09-02T04:06:17.881Z,14.21
2018-09-02T04:08:45.739Z,14.19
2018-09-02T04:11:13.640Z,14.19
2018-09-02T04:13:41.453Z,14.22
2018-09-02T04:16:09.330Z,14.25
2018-09-02T04:18:37.127Z,14.26
2018-09-02T04:21:05.249Z,14.31
2018-09-02T04:23:33.046Z,14.26
2018-09-02T04:26:00.845Z,14.24
2018-09-02T04:28:28.623Z,14.27
2018-09-02T04:30:56.479Z,14.26
2018-09-02T04:33:24.313Z,14.26
2018-09-02T04:35:52.052Z,14.24
2018-09-02T04:38:19.815Z,14.26
2018-09-02T04:40:47.686Z,14.26
2018-09-02T04:43:15.542Z,14.26
2018-09-02T04:45:43.332Z,14.19
2018-09-02T04:48:11.168Z,14.19
2018-09-02T04:50:38.975Z,14.17
2018-09-02T04:53:06.783Z,14.17
2018-09-02T04:55:34.591Z,14.18
2018-09-02T04:58:02.379Z,14.11
2018-09-02T05:00:30.272Z,14.15
2018-09-02T05:02:58.083Z,14.12
2018-09-02T05:05:25.870Z,14.07
2018-09-02T05:07:53.698Z,14.12
2018-09-02T05:10:21.552Z,14.14
2018-09-02T05:12:49.367Z,14.11
2018-09-02T05:15:17.143Z,14.17
2018-09-02T05:17:45.002Z,14.17
2018-09-02T05:20:12.783Z,14.19
2018-09-02T05:22:40.627Z,14.23
2018-09-02T05:25:08.453Z,14.24
2018-09-02T05:27:36.248Z,14.29
2018-09-02T05:30:04.904Z,14.29
2018-09-02T05:32:32.855Z,14.33
2018-09-02T05:35:00.711Z,14.33
2018-09-02T05:37:28.535Z,14.33
2018-09-02T05:39:56.346Z,14.39
2018-09-02T05:42:24.184Z,14.43
2018-09-02T05:44:51.973Z,14.41
2018-09-02T05:47:19.756Z,14.43
2018-09-02T05:49:47.555Z,14.47
2018-09-02T05:52:15.307Z,14.52
2018-09-02T05:54:43.125Z,14.53
2018-09-02T05:57:10.890Z,14.58
2018-09-02T05:59:38.729Z,14.59
2018-09-02T06:02:06.591Z,14.64
2018-09-02T06:04:34.304Z,14.65
2018-09-02T06:07:02.103Z,14.68
2018-09-02T06:09:29.914Z,14.74
2018-09-02T06:11:57.727Z,14.78
2018-09-02T06:14:25.522Z,14.83
2018-09-02T06:16:53.425Z,14.89
2018-09-02T06:19:21.322Z,14.95
2018-09-02T06:21:49.140Z,14.97
2018-09-02T06:24:17.067Z,15.04
2018-09-02T06:26:44.875Z,15.09
2018-09-02T06:29:12.644Z,15.08
2018-09-02T06:31:40.403Z,15.14
2018-09-02T06:34:08.308Z,15.15
2018-09-02T06:36:36.128Z,15.16
2018-09-02T06:39:06.804Z,15.16
2018-09-02T06:41:34.616Z,15.16
2018-09-02T06:44:02.368Z,15.20
2018-09-02T06:46:31.836Z,15.23
2018-09-02T06:48:59.759Z,15.23
2018-09-02T06:51:27.634Z,15.24
2018-09-02T06:53:55.411Z,15.28
2018-09-02T06:56:23.527Z,15.34
2018-09-02T06:58:51.298Z,15.38
2018-09-02T07:01:19.351Z,15.39
2018-09-02T07:03:47.255Z,15.38
2018-09-02T07:06:15.055Z,15.37
2018-09-02T07:08:42.851Z,15.45
2018-09-02T07:11:10.684Z,15.50
2018-09-02T07:13:38.464Z,15.55
2018-09-02T07:16:06.560Z,15.60
2018-09-02T07:18:34.356Z,15.70
2018-09-02T07:21:02.180Z,15.79
2018-09-02T07:23:29.961Z,15.92
2018-09-02T07:25:57.715Z,16.04
2018-09-02T07:28:25.544Z,16.19
2018-09-02T07:30:53.373Z,16.23
2018-09-02T07:33:21.151Z,16.31
2018-09-02T07:35:48.984Z,16.39
2018-09-02T07:38:16.806Z,16.40
2018-09-02T07:40:44.564Z,16.49
2018-09-02T07:43:12.295Z,16.59
2018-09-02T07:45:40.081Z,16.63
2018-09-02T07:48:07.920Z,16.76
2018-09-02T07:50:35.732Z,16.86
2018-09-02T07:53:03.716Z,17.10
2018-09-02T07:55:31.552Z,17.30
2018-09-02T07:57:59.323Z,17.57
2018-09-02T08:00:27.050Z,17.74
2018-09-02T08:02:54.883Z,17.80
2018-09-02T08:05:23.495Z,18.03
2018-09-02T08:07:51.319Z,18.15
2018-09-02T08:10:19.123Z,18.34
2018-09-02T08:12:47.149Z,18.44
2018-09-02T08:15:14.783Z,18.50
2018-09-02T08:17:42.699Z,18.49
2018-09-02T08:20:10.950Z,18.62
2018-09-02T08:22:40.461Z,18.68
2018-09-02T08:25:08.922Z,18.62
2018-09-02T08:27:36.766Z,18.82
2018-09-02T08:30:04.676Z,19.01
2018-09-02T08:32:32.527Z,19.13
2018-09-02T08:35:00.363Z,19.15
2018-09-02T08:37:28.172Z,19.27
2018-09-02T08:39:56.463Z,19.39
2018-09-02T08:42:24.644Z,19.41
2018-09-02T08:44:52.419Z,19.60
2018-09-02T08:47:20.353Z,19.62
2018-09-02T08:49:48.615Z,19.65
2018-09-02T08:52:16.456Z,19.78
2018-09-02T08:54:44.309Z,19.73
2018-09-02T08:57:12.136Z,19.79
2018-09-02T08:59:39.928Z,19.89
2018-09-02T09:02:07.746Z,19.96
2018-09-02T09:04:36.196Z,20.15
2018-09-02T09:07:04.406Z,20.15
2018-09-02T09:09:32.650Z,20.23
2018-09-02T09:12:00.403Z,20.22
2018-09-02T09:14:28.159Z,20.11
2018-09-02T09:16:56.151Z,20.02
2018-09-02T09:19:23.939Z,20.01
2018-09-02T09:21:51.828Z,20.05
2018-09-02T09:24:19.603Z,20.17
2018-09-02T09:26:47.371Z,20.09
2018-09-02T09:29:15.136Z,20.13
2018-09-02T09:31:42.968Z,20.20
2018-09-02T09:34:10.679Z,20.03
2018-09-02T09:36:38.459Z,20.11
2018-09-02T09:39:08.421Z,20.04
2018-09-02T09:41:36.196Z,20.06
2018-09-02T09:44:04.031Z,20.06
2018-09-02T09:46:32.230Z,20.13
2018-09-02T09:49:00.127Z,20.06
2018-09-02T09:51:27.954Z,20.09
2018-09-02T09:53:55.810Z,19.99
2018-09-02T09:56:23.631Z,20.02
2018-09-02T09:58:51.480Z,19.93
2018-09-02T10:01:19.320Z,19.93
2018-09-02T10:03:47.252Z,20.07
2018-09-02T10:06:14.943Z,20.03
2018-09-02T10:08:42.759Z,20.26
2018-09-02T10:11:10.569Z,20.45
2018-09-02T10:13:38.458Z,20.59
2018-09-02T10:16:06.526Z,20.56
2018-09-02T10:18:34.437Z,20.62
2018-09-02T10:21:02.301Z,20.55
2018-09-02T10:23:30.104Z,20.62
2018-09-02T10:25:57.904Z,20.63
2018-09-02T10:28:25.748Z,20.55
2018-09-02T10:30:53.540Z,20.60
2018-09-02T10:33:21.428Z,20.62
2018-09-02T10:35:49.176Z,20.46
2018-09-02T10:38:16.946Z,20.44
2018-09-02T10:40:44.759Z,20.34
2018-09-02T10:43:12.580Z,20.22
2018-09-02T10:45:40.328Z,20.27
2018-09-02T10:48:08.137Z,20.28
2018-09-02T10:50:35.975Z,20.20
2018-09-02T10:53:03.809Z,20.14
2018-09-02T10:55:31.544Z,20.09
2018-09-02T10:57:59.283Z,20.13
2018-09-02T11:00:27.065Z,19.99
2018-09-02T11:02:54.875Z,20.03
2018-09-02T11:05:22.725Z,20.07
2018-09-02T11:07:50.571Z,20.06
2018-09-02T11:10:18.369Z,20.16
2018-09-02T11:12:46.205Z,20.17
2018-09-02T11:15:14.075Z,20.19
2018-09-02T11:17:42.220Z,20.25
2018-09-02T11:20:10.140Z,20.29
2018-09-02T11:22:37.995Z,20.26
2018-09-02T11:25:06.064Z,20.25
2018-09-02T11:27:33.869Z,20.21
2018-09-02T11:30:01.723Z,20.16
2018-09-02T11:32:30.433Z,20.23
2018-09-02T11:34:58.184Z,20.24
2018-09-02T11:37:25.966Z,20.26
2018-09-02T11:39:53.780Z,20.41
2018-09-02T11:42:21.942Z,20.37
2018-09-02T11:44:49.696Z,20.45
2018-09-02T11:47:17.477Z,20.39
2018-09-02T11:49:45.215Z,20.32
2018-09-02T11:52:12.969Z,20.37
2018-09-02T11:54:40.723Z,20.33
2018-09-02T11:57:08.808Z,20.44
2018-09-02T11:59:37.264Z,20.48
2018-09-02T12:02:05.393Z,20.56
2018-09-02T12:04:33.192Z,20.63
2018-09-02T12:07:00.963Z,20.77
2018-09-02T12:09:28.831Z,20.82
2018-09-02T12:11:56.655Z,20.94
2018-09-02T12:14:24.532Z,20.97
2018-09-02T12:16:52.286Z,21.09
2018-09-02T12:19:20.132Z,21.29
2018-09-02T12:21:48.088Z,21.51
2018-09-02T12:24:15.958Z,21.53
2018-09-02T12:26:43.798Z,21.58
2018-09-02T12:29:13.191Z,21.72
2018-09-02T12:31:42.295Z,21.80
2018-09-02T12:34:10.092Z,21.85
2018-09-02T12:36:37.938Z,21.70
2018-09-02T12:39:07.313Z,21.76
2018-09-02T12:41:35.179Z,21.98
2018-09-02T12:44:03.055Z,21.92
2018-09-02T12:46:31.395Z,21.98
2018-09-02T12:48:59.200Z,22.00
2018-09-02T12:51:27.003Z,21.91
2018-09-02T12:53:54.843Z,21.83
2018-09-02T12:56:22.645Z,21.73
2018-09-02T12:58:50.461Z,21.81
2018-09-02T13:01:18.343Z,21.68
2018-09-02T13:03:46.056Z,21.64
2018-09-02T13:06:13.899Z,21.77
2018-09-02T13:08:41.764Z,21.92
2018-09-02T13:11:10.587Z,21.88
2018-09-02T13:13:38.555Z,21.79
2018-09-02T13:16:08.547Z,21.45
2018-09-02T13:18:59.814Z,21.48
2018-09-02T13:21:33.693Z,21.34
2018-09-02T13:24:05.428Z,21.34
2018-09-02T13:26:42.704Z,21.38
2018-09-02T13:29:22.845Z,21.11
2018-09-02T13:31:50.979Z,21.02
2018-09-02T13:34:18.747Z,21.03
2018-09-02T13:36:46.676Z,20.97
2018-09-02T13:39:15.698Z,21.07
2018-09-02T13:41:43.499Z,20.95
2018-09-02T13:44:22.140Z,21.12
2018-09-02T13:46:49.940Z,21.11
2018-09-02T13:49:17.660Z,20.98
2018-09-02T13:51:45.519Z,21.05
2018-09-02T13:54:13.355Z,21.11
2018-09-02T13:56:41.257Z,21.08
2018-09-02T13:59:09.007Z,21.14
2018-09-02T14:01:36.907Z,21.11
2018-09-02T14:04:04.807Z,21.25
2018-09-02T14:06:32.633Z,21.22
2018-09-02T14:09:00.451Z,21.14
2018-09-02T14:11:28.264Z,21.22
2018-09-02T14:13:56.109Z,21.23
2018-09-02T14:16:23.893Z,21.29
2018-09-02T14:18:51.795Z,21.40
2018-09-02T14:21:19.738Z,21.34
2018-09-02T14:23:47.579Z,21.43
2018-09-02T14:26:15.419Z,21.43
2018-09-02T14:28:43.399Z,21.39
2018-09-02T14:31:11.699Z,21.44
2018-09-02T14:33:42.597Z,21.33
2018-09-02T14:36:15.864Z,21.37
2018-09-02T14:38:43.899Z,21.36
2018-09-02T14:41:11.810Z,21.37
2018-09-02T14:43:39.592Z,21.15
2018-09-02T14:46:07.867Z,20.96
2018-09-02T14:48:35.724Z,21.02
2018-09-02T14:51:03.556Z,20.98
2018-09-02T14:53:31.708Z,20.80
2018-09-02T14:55:59.587Z,20.78
2018-09-02T14:58:27.552Z,20.63
2018-09-02T15:00:55.527Z,20.49
2018-09-02T15:03:23.355Z,20.54
2018-09-02T15:05:51.130Z,20.34
2018-09-02T15:08:18.929Z,20.20
2018-09-02T15:10:46.791Z,20.32
2018-09-02T15:13:14.572Z,20.16
2018-09-02T15:15:42.339Z,20.11
2018-09-02T15:18:10.088Z,20.05
2018-09-02T15:20:37.876Z,19.90
2018-09-02T15:23:06.016Z,19.87
2018-09-02T15:25:33.767Z,19.70
2018-09-02T15:28:01.528Z,19.69
2018-09-02T15:30:29.349Z,19.58
2018-09-02T15:32:57.187Z,19.59
2018-09-02T15:35:24.995Z,19.57
2018-09-02T15:37:52.892Z,19.63
2018-09-02T15:40:20.619Z,19.49
2018-09-02T15:42:48.432Z,19.49
2018-09-02T15:45:16.283Z,19.48
2018-09-02T15:47:45.687Z,19.39
2018-09-02T15:50:13.966Z,19.34
2018-09-02T15:52:41.792Z,19.43
2018-09-02T15:55:09.585Z,19.46
2018-09-02T15:57:38.010Z,19.36
2018-09-02T16:00:07.200Z,19.24
2018-09-02T16:02:35.358Z,19.22
2018-09-02T16:05:04.563Z,19.15
2018-09-02T16:07:32.856Z,19.16
2018-09-02T16:10:01.992Z,19.24
2018-09-02T16:12:30.479Z,19.21
2018-09-02T16:14:58.680Z,19.11
2018-09-02T16:17:26.759Z,19.09
2018-09-02T16:19:54.956Z,19.13
2018-09-02T16:22:24.164Z,19.15
2018-09-02T16:24:51.964Z,19.15
2018-09-02T16:27:19.715Z,19.06
2018-09-02T16:29:47.666Z,19.14
2018-09-02T16:32:15.379Z,19.13
2018-09-02T16:34:44.715Z,19.07
2018-09-02T16:37:12.983Z,19.16
2018-09-02T16:39:40.780Z,19.02
2018-09-02T16:42:08.604Z,18.85
2018-09-02T16:44:36.888Z,18.91
2018-09-02T16:47:04.848Z,18.93
2018-09-02T16:49:32.700Z,18.89
2018-09-02T16:52:00.671Z,18.91
2018-09-02T16:54:28.709Z,18.89
2018-09-02T16:56:56.679Z,18.91
2018-09-02T16:59:24.475Z,18.81
2018-09-02T17:01:52.212Z,18.82
2018-09-02T17:04:21.002Z,18.90
2018-09-02T17:06:48.876Z,18.80
2018-09-02T17:09:16.665Z,18.79
2018-09-02T17:11:44.502Z,18.74
2018-09-02T17:14:12.288Z,18.76
2018-09-02T17:16:40.160Z,18.71
2018-09-02T17:19:11.088Z,18.70
2018-09-02T17:21:38.887Z,18.65
2018-09-02T17:24:07.011Z,18.57
2018-09-02T17:26:34.851Z,18.52
2018-09-02T17:29:02.586Z,18.43
2018-09-02T17:31:30.428Z,18.46
2018-09-02T17:33:58.214Z,18.43
2018-09-02T17:36:26.039Z,18.39
2018-09-02T17:38:53.829Z,18.38
2018-09-02T17:41:21.590Z,18.43
2018-09-02T17:43:49.415Z,18.43
2018-09-02T17:46:17.688Z,18.35
2018-09-02T17:48:45.507Z,18.29
2018-09-02T17:51:14.503Z,18.33
2018-09-02T17:53:42.461Z,18.26
2018-09-02T17:56:10.244Z,18.21
2018-09-02T17:58:38.055Z,18.20
2018-09-02T18:01:06.268Z,18.18
2018-09-02T18:03:34.560Z,18.17
2018-09-02T18:06:02.667Z,18.18
2018-09-02T18:08:30.448Z,18.07
2018-09-02T18:10:58.392Z,18.10
2018-09-02T18:13:26.191Z,18.05
2018-09-02T18:15:54.655Z,18.00
2018-09-02T18:18:22.670Z,17.97
2018-09-02T18:20:50.431Z,17.95
2018-09-02T18:23:18.232Z,17.95
2018-09-02T18:25:46.140Z,17.89
2018-09-02T18:28:17.221Z,17.85
2018-09-02T18:30:45.470Z,17.85
2018-09-02T18:33:13.316Z,17.84
2018-09-02T18:35:41.087Z,17.87
2018-09-02T18:38:08.922Z,17.85
2018-09-02T18:40:37.671Z,17.82
2018-09-02T18:43:05.861Z,17.77
2018-09-02T18:45:33.780Z,17.81
2018-09-02T18:48:01.519Z,17.83
2018-09-02T18:50:29.456Z,17.83
2018-09-02T18:52:57.919Z,17.81
2018-09-02T18:55:25.739Z,17.71
2018-09-02T18:57:53.934Z,17.80
2018-09-02T19:00:21.735Z,17.80
2018-09-02T19:02:50.119Z,17.79
2018-09-02T19:05:19.724Z,17.74
2018-09-02T19:07:47.883Z,17.78
2018-09-02T19:10:15.704Z,17.76
2018-09-02T19:12:43.491Z,17.72
2018-09-02T19:15:11.405Z,17.72
2018-09-02T19:17:39.891Z,17.71
2018-09-02T19:20:07.851Z,17.74
2018-09-02T19:22:35.635Z,17.66
2018-09-02T19:25:03.630Z,17.69
2018-09-02T19:27:32.075Z,17.65
2018-09-02T19:29:59.867Z,17.65
2018-09-02T19:32:27.715Z,17.67
2018-09-02T19:34:55.572Z,17.66
2018-09-02T19:37:23.687Z,17.67
2018-09-02T19:39:51.530Z,17.68
2018-09-02T19:42:19.315Z,17.66
2018-09-02T19:44:48.116Z,17.65
2018-09-02T19:47:15.943Z,17.61
2018-09-02T19:49:43.775Z,17.56
2018-09-02T19:52:12.327Z,17.54
2018-09-02T19:54:40.116Z,17.59
2018-09-02T19:57:08.077Z,17.58
2018-09-02T19:59:35.889Z,17.60
2018-09-02T20:02:03.688Z,17.55
2018-09-02T20:04:31.511Z,17.53
2018-09-02T20:06:59.331Z,17.51
2018-09-02T20:09:27.224Z,17.56
2018-09-02T20:11:55.022Z,17.58
2018-09-02T20:14:22.832Z,17.54
2018-09-02T20:16:50.715Z,17.44
2018-09-02T20:19:18.524Z,17.41
2018-09-02T20:21:46.386Z,17.49
2018-09-02T20:24:21.389Z,17.43
2018-09-02T20:26:49.391Z,17.45
2018-09-02T20:29:18.188Z,17.46
2018-09-02T20:31:46.819Z,17.38
2018-09-02T20:34:14.676Z,17.41
2018-09-02T20:36:42.544Z,17.39
2018-09-02T20:39:10.826Z,17.35
2018-09-02T20:41:38.655Z,17.35
2018-09-02T20:44:06.865Z,17.37
2018-09-02T20:46:40.034Z,17.34
2018-09-02T20:49:07.998Z,17.26
2018-09-02T20:51:35.980Z,17.28
2018-09-02T20:54:03.815Z,17.26
2018-09-02T20:56:32.020Z,17.31
2018-09-02T20:59:02.296Z,17.31
2018-09-02T21:01:30.224Z,17.30
2018-09-02T21:03:57.981Z,17.26
2018-09-02T21:06:26.452Z,17.24
2018-09-02T21:08:54.808Z,17.22
2018-09-02T21:11:22.640Z,17.26
2018-09-02T21:13:50.459Z,17.21
2018-09-02T21:16:20.137Z,17.18
2018-09-02T21:18:48.206Z,17.17
2018-09-02T21:21:16.047Z,17.17
2018-09-02T21:23:43.917Z,17.15
2018-09-02T21:26:12.470Z,17.15
2018-09-02T21:28:40.335Z,17.14
2018-09-02T21:31:08.304Z,17.14
2018-09-02T21:33:36.075Z,17.12
2018-09-02T21:36:04.143Z,17.11
2018-09-02T21:38:31.934Z,17.18
2018-09-02T21:40:59.699Z,17.16
2018-09-02T21:43:27.550Z,17.01
2018-09-02T21:45:55.445Z,17.00
2018-09-02T21:48:23.351Z,17.00
2018-09-02T21:50:51.431Z,16.96
2018-09-02T21:53:19.243Z,16.83
2018-09-02T21:55:59.596Z,16.82
2018-09-02T21:58:28.195Z,16.76
2018-09-02T22:01:00.057Z,16.73
2018-09-02T22:03:28.794Z,16.73
2018-09-02T22:05:57.976Z,16.70
2018-09-02T22:08:25.817Z,16.71
2018-09-02T22:10:53.618Z,16.68
2018-09-02T22:13:22.728Z,16.73
2018-09-02T22:15:50.611Z,16.73
2018-09-02T22:18:18.555Z,16.68
2018-09-02T22:20:46.339Z,16.76
2018-09-02T22:23:14.154Z,16.74
2018-09-02T22:25:41.982Z,16.82
2018-09-02T22:28:09.720Z,16.75
2018-09-02T22:30:39.837Z,16.77
2018-09-02T22:33:07.757Z,16.82
2018-09-02T22:35:35.596Z,16.82
2018-09-02T22:38:03.571Z,16.79
2018-09-02T22:40:31.449Z,16.76
2018-09-02T22:42:59.546Z,16.79
2018-09-02T22:45:27.706Z,16.78
2018-09-02T22:48:01.912Z,16.76
2018-09-02T22:50:35.345Z,16.80
2018-09-02T22:53:09.769Z,16.78
2018-09-02T22:55:39.235Z,16.75
2018-09-02T22:58:07.041Z,16.70
2018-09-02T23:00:34.881Z,16.66
2018-09-02T23:03:02.684Z,16.69
2018-09-02T23:05:30.522Z,16.68
2018-09-02T23:07:59.839Z,16.67
2018-09-02T23:10:27.608Z,16.68
2018-09-02T23:12:55.400Z,16.62
2018-09-02T23:15:23.191Z,16.58
2018-09-02T23:17:50.971Z,16.58
2018-09-02T23:20:20.261Z,16.60
2018-09-02T23:22:48.127Z,16.60
2018-09-02T23:25:24.140Z,16.57
2018-09-02T23:27:55.945Z,16.55
2018-09-02T23:30:23.792Z,16.49
2018-09-02T23:32:51.676Z,16.47
2018-09-02T23:35:19.692Z,16.48
2018-09-02T23:37:47.503Z,16.46
2018-09-02T23:40:15.275Z,16.49
2018-09-02T23:42:43.031Z,16.40
2018-09-02T23:45:10.880Z,16.50
2018-09-02T23:47:38.659Z,16.46
2018-09-02T23:50:06.539Z,16.44
2018-09-02T23:52:34.341Z,16.37
2018-09-02T23:55:02.147Z,16.32
2018-09-02T23:57:30.140Z,16.31
2018-09-02T23:59:58.717Z,16.18
